TULLOCH (TUL)

Elevation: 515' · STANISLAUS R basin · Operator: US Bureau of Reclamation

Provisional data, subject to change.
Query executed Wednesday at 15:59:34   clock

Select a sensor type for a plot of data.
Note: Reservoir Flows are daily averages.

Earlier

Date RES ELE    STORAGE    RES CHG    TOC STO    ABV TOC    OUTFLOW    INFLOW    EVAP    RIV REL    SPILL    DIS PWR   
 FEET   AF   AF   AF   AF   CFS   CFS   CFS   CFS   CFS   CFS  
06/28/2016 508.86 65548 -197 67000 -1452 1442 1367 24 0 0 1442
06/29/2016 508.83 65511 -37 67000 -1489 1547 1546 18 0 0 1547
06/30/2016 508.71 65363 -148 67000 -1637 1542 1485 18 0 0 1542
07/01/2016 508.17 64698 -665 67000 -2302 1504 1189 20 0 0 1504
07/02/2016 508.15 64674 -24 67000 -2326 1566 1575 21 0 0 1566
07/03/2016 508.20 64735 61 67000 -2265 1520 1564 13 0 0 1520
07/04/2016 508.67 65314 579 67000 -1686 1512 1822 18 0 0 1512
07/05/2016 508.64 65277 -37 67000 -1723 1534 1531 16 0 0 1534
07/06/2016 509.11 65857 580 67000 -1143 1544 1852 16 0 0 1544
07/07/2016 508.52 65129 -728 67000 -1871 1480 1130 17 0 0 1480
07/08/2016 508.51 65117 -12 67000 -1883 1477 1493 22 0 0 1477
07/09/2016 508.70 65351 234 67000 -1649 1453 1589 18 0 0 1453
07/10/2016 509.09 65832 481 67000 -1168 1396 1655 16 0 0 1396
07/11/2016 509.09 65832 0 67000 -1168 1321 1335 14 0 0 1321
07/12/2016 509.21 65982 150 67000 -1018 1380 1472 16 0 0 1380
07/13/2016 509.22 65995 13 67000 -1005 1456 1478 15 0 0 1456
07/14/2016 508.89 65585 -410 67000 -1415 1459 1270 18 0 0 1459
07/15/2016 508.86 65548 -37 67000 -1452 1367 1366 18 0 0 1367
07/16/2016 508.58 65203 -345 67000 -1797 1370 1217 21 0 0 1370
07/17/2016 508.55 65166 -37 67000 -1834 1417 1415 17 0 0 1417
07/18/2016 509.13 65882 716 67000 -1118 1498 1877 18 0 0 1498
07/19/2016 509.10 65845 -37 67000 -1155 1455 1453 17 0 0 1455
07/20/2016 508.79 65461 -384 67000 -1539 1545 1364 13 0 0 1545
07/21/2016 508.56 65178 -283 67000 -1822 1566 1439 16 0 0 1566
07/22/2016 509.07 65807 629 67000 -1193 1608 1941 16 0 0 1608
07/23/2016 508.82 65498 -309 67000 -1502 1610 1472 18 0 0 1610
07/24/2016 509.34 66144 646 67000 -856 1520 1865 19 0 0 1520
07/25/2016 509.25 66032 -112 67000 -968 1529 1494 21 0 0 1529
07/26/2016 508.74 65400 -632 67000 -1600 1618 1317 18 0 0 1618
07/27/2016 -- -- -- -- -- -- -- -- -- -- --

Later | Latest

Warning! This data is preliminary and subject to revision.

Show TUL Map | Plot TUL Data | 1 Month TUL Data | Real-Time TUL Data | TUL Info